Aviation Digital Data Service (ADDS)

Output produced by METARs form (1546 UTC 15 December 2017)
found at http://aviationweather.gov/adds/metars/
 
KCON 151120Z 1512/1612 00000KT P6SM SKC 
     FM160200 00000KT P6SM BKN050 
     FM160900 27005KT P6SM BKN050